createdAt,value
2023-03-02T00:01:25.894Z,30.23
2023-03-02T00:03:54.352Z,33.95
2023-03-02T00:06:22.665Z,34.58
2023-03-02T00:08:50.960Z,34.95
2023-03-02T00:11:21.559Z,22.40
2023-03-02T00:16:17.906Z,35.95
2023-03-02T00:18:46.181Z,33.03
2023-03-02T00:21:14.470Z,32.22
2023-03-02T00:23:42.901Z,33.65
2023-03-02T00:26:11.154Z,35.28
2023-03-02T00:28:40.757Z,37.30
2023-03-02T00:31:09.129Z,31.58
2023-03-02T00:33:37.845Z,37.08
2023-03-02T00:36:06.785Z,33.78
2023-03-02T00:38:35.045Z,36.58
2023-03-02T00:41:03.587Z,21.98
2023-03-02T00:43:31.829Z,31.50
2023-03-02T00:46:01.411Z,30.17
2023-03-02T00:48:29.705Z,32.45
2023-03-02T00:50:57.964Z,33.08
2023-03-02T00:53:26.216Z,30.73
2023-03-02T00:55:55.278Z,34.92
2023-03-02T00:58:23.549Z,31.30
2023-03-02T01:00:51.810Z,33.25
2023-03-02T01:03:21.758Z,21.77
2023-03-02T01:05:50.202Z,30.67
2023-03-02T01:08:18.427Z,29.13
2023-03-02T01:10:46.634Z,30.27
2023-03-02T01:13:14.908Z,33.28
2023-03-02T01:15:43.130Z,32.65
2023-03-02T01:18:12.214Z,26.38
2023-03-02T01:20:42.663Z,29.50
2023-03-02T01:23:10.939Z,32.45
2023-03-02T01:25:39.837Z,26.70
2023-03-02T01:28:08.079Z,28.63
2023-03-02T01:30:36.378Z,34.38
2023-03-02T01:33:04.736Z,31.83
2023-03-02T01:35:32.962Z,29.75
2023-03-02T01:38:02.591Z,31.42
2023-03-02T01:40:31.104Z,30.03
2023-03-02T01:43:02.416Z,26.80
2023-03-02T01:45:51.687Z,27.48
2023-03-02T01:48:24.492Z,29.65
2023-03-02T01:50:53.295Z,30.73
2023-03-02T01:53:24.653Z,33.55
2023-03-02T01:55:52.989Z,30.40
2023-03-02T01:58:21.752Z,27.63
2023-03-02T02:00:50.676Z,32.05
2023-03-02T02:03:21.912Z,28.98
2023-03-02T02:05:57.762Z,28.88
2023-03-02T02:08:27.465Z,28.05
2023-03-02T02:13:24.506Z,31.83
2023-03-02T02:15:52.842Z,14.95
2023-03-02T02:18:21.091Z,32.33
2023-03-02T02:20:50.720Z,30.33
2023-03-02T02:23:28.066Z,21.50
2023-03-02T02:26:24.645Z,30.33
2023-03-02T02:28:57.917Z,31.08
2023-03-02T02:31:31.942Z,30.63
2023-03-02T02:34:03.221Z,26.85
2023-03-02T02:36:34.830Z,28.02
2023-03-02T02:39:04.998Z,31.10
2023-03-02T02:41:36.676Z,28.58
2023-03-02T02:44:05.308Z,29.85
2023-03-02T02:46:34.451Z,29.23
2023-03-02T02:49:04.139Z,29.85
2023-03-02T02:51:33.161Z,30.58
2023-03-02T02:54:02.962Z,34.20
2023-03-02T02:56:35.202Z,30.63
2023-03-02T02:59:06.023Z,33.15
2023-03-02T03:01:35.098Z,27.33
2023-03-02T03:04:05.797Z,26.75
2023-03-02T03:06:42.211Z,31.48
2023-03-02T03:09:12.442Z,31.73
2023-03-02T03:11:43.827Z,28.48
2023-03-02T03:14:13.820Z,28.02
2023-03-02T03:16:44.484Z,29.30
2023-03-02T03:19:18.263Z,26.98
2023-03-02T03:21:47.141Z,29.95
2023-03-02T03:24:15.424Z,28.95
2023-03-02T03:26:45.068Z,27.17
2023-03-02T03:29:13.618Z,34.00
2023-03-02T03:31:41.928Z,31.67
2023-03-02T03:34:10.698Z,29.80
2023-03-02T03:36:39.229Z,26.92
2023-03-02T03:39:07.849Z,31.98
2023-03-02T03:41:36.108Z,33.40
2023-03-02T03:44:06.073Z,27.85
2023-03-02T03:46:35.350Z,32.63
2023-03-02T03:49:04.567Z,30.92
2023-03-02T03:51:35.414Z,28.40
2023-03-02T03:54:04.592Z,31.00
2023-03-02T03:56:35.747Z,27.27
2023-03-02T03:59:07.836Z,26.42
2023-03-02T04:01:37.212Z,26.45
2023-03-02T04:04:07.114Z,26.98
2023-03-02T04:06:35.578Z,26.73
2023-03-02T04:09:04.710Z,30.65
2023-03-02T04:11:33.306Z,26.63
2023-03-02T04:14:01.937Z,28.20
2023-03-02T04:16:32.198Z,26.88
2023-03-02T04:19:00.902Z,26.30
2023-03-02T04:21:29.280Z,28.52
2023-03-02T04:23:57.500Z,29.35
2023-03-02T04:26:26.846Z,30.05
2023-03-02T04:28:55.115Z,30.95
2023-03-02T04:31:23.458Z,29.08
2023-03-02T04:33:53.136Z,27.33
2023-03-02T04:36:21.468Z,31.17
2023-03-02T04:38:50.512Z,29.00
2023-03-02T04:41:19.500Z,29.30
2023-03-02T04:43:47.765Z,31.60
2023-03-02T04:46:17.014Z,32.70
2023-03-02T04:48:45.343Z,28.83
2023-03-02T04:51:18.827Z,30.55
2023-03-02T04:53:47.083Z,29.20
2023-03-02T04:56:15.311Z,28.85
2023-03-02T04:58:43.545Z,28.80
2023-03-02T05:01:12.304Z,26.17
2023-03-02T05:03:40.629Z,25.42
2023-03-02T05:06:09.350Z,27.15
2023-03-02T05:08:39.243Z,28.27
2023-03-02T05:11:08.235Z,31.10
2023-03-02T05:13:36.978Z,25.60
2023-03-02T05:16:05.978Z,31.05
2023-03-02T05:18:34.189Z,28.15
2023-03-02T05:21:02.446Z,27.63
2023-03-02T05:23:31.676Z,28.40
2023-03-02T05:26:01.309Z,28.67
2023-03-02T05:28:30.045Z,28.60
2023-03-02T05:30:58.292Z,30.55
2023-03-02T05:33:27.005Z,34.25
2023-03-02T05:35:55.274Z,28.75
2023-03-02T05:38:23.620Z,27.40
2023-03-02T05:40:51.912Z,31.48
2023-03-02T05:43:23.511Z,27.13
2023-03-02T05:45:51.820Z,30.65
2023-03-02T05:48:20.072Z,32.40
2023-03-02T05:50:48.335Z,30.25
2023-03-02T05:53:16.591Z,30.88
2023-03-02T05:55:44.854Z,31.77
2023-03-02T05:58:15.476Z,29.90
2023-03-02T06:03:13.325Z,30.98
2023-03-02T06:05:41.655Z,29.33
2023-03-02T06:08:09.936Z,31.88
2023-03-02T06:10:38.216Z,26.67
2023-03-02T06:13:06.455Z,33.13
2023-03-02T06:15:34.690Z,31.63
2023-03-02T06:18:04.585Z,30.40
2023-03-02T06:20:32.813Z,29.85
2023-03-02T06:23:00.983Z,29.30
2023-03-02T06:25:29.264Z,31.10
2023-03-02T06:27:57.431Z,31.38
2023-03-02T06:30:27.880Z,29.58
2023-03-02T06:32:56.151Z,33.10
2023-03-02T06:35:25.943Z,30.15
2023-03-02T06:37:54.177Z,28.67
2023-03-02T06:40:22.579Z,27.83
2023-03-02T06:42:50.885Z,31.15
2023-03-02T06:45:19.372Z,34.92
2023-03-02T06:47:47.622Z,30.13
2023-03-02T06:50:16.057Z,27.40
2023-03-02T06:52:45.736Z,30.00
2023-03-02T06:55:14.065Z,26.48
2023-03-02T06:57:42.274Z,29.35
2023-03-02T07:00:17.110Z,29.65
2023-03-02T07:02:45.839Z,28.13
2023-03-02T07:05:14.323Z,28.08
2023-03-02T07:07:42.642Z,28.40
2023-03-02T07:10:13.451Z,26.80
2023-03-02T07:12:42.193Z,26.08
2023-03-02T07:15:14.039Z,30.88
2023-03-02T07:17:43.917Z,34.83
2023-03-02T07:20:14.644Z,28.55
2023-03-02T07:22:43.673Z,30.52
2023-03-02T07:25:13.623Z,25.27
2023-03-02T07:27:42.039Z,24.77
2023-03-02T07:30:11.908Z,25.45
2023-03-02T07:32:40.119Z,24.95
2023-03-02T07:35:09.090Z,25.17
2023-03-02T07:37:37.334Z,27.85
2023-03-02T07:40:07.648Z,23.75
2023-03-02T07:42:37.594Z,27.63
2023-03-02T07:45:07.249Z,26.58
2023-03-02T07:47:35.753Z,22.05
2023-03-02T07:50:04.044Z,26.75
2023-03-02T07:52:32.308Z,22.60
2023-03-02T07:55:00.545Z,25.65
2023-03-02T07:57:28.802Z,27.75
2023-03-02T07:59:58.416Z,24.17
2023-03-02T08:02:26.816Z,22.85
2023-03-02T08:04:55.206Z,24.42
2023-03-02T08:07:23.429Z,23.20
2023-03-02T08:09:51.849Z,20.52
2023-03-02T08:12:20.186Z,20.25
2023-03-02T08:14:48.680Z,22.02
2023-03-02T08:17:18.302Z,18.27
2023-03-02T08:19:46.996Z,20.67
2023-03-02T08:22:15.208Z,18.38
2023-03-02T08:24:43.589Z,18.05
2023-03-02T08:27:14.737Z,19.10
2023-03-02T08:29:43.390Z,17.00
2023-03-02T08:32:11.802Z,23.10
2023-03-02T08:34:42.195Z,16.10
2023-03-02T08:37:10.468Z,23.50
2023-03-02T08:39:38.699Z,24.02
2023-03-02T08:42:06.927Z,19.63
2023-03-02T08:44:35.321Z,24.25
2023-03-02T08:47:03.608Z,26.90
2023-03-02T08:49:31.869Z,22.88
2023-03-02T08:52:01.455Z,17.55
2023-03-02T08:54:29.734Z,25.25
2023-03-02T08:56:57.946Z,26.20
2023-03-02T08:59:26.902Z,20.50
2023-03-02T09:01:55.158Z,24.15
2023-03-02T09:04:23.399Z,24.90
2023-03-02T09:06:51.676Z,23.48
2023-03-02T09:09:21.321Z,19.92
2023-03-02T09:11:49.576Z,20.77
2023-03-02T09:14:17.810Z,25.50
2023-03-02T09:16:46.999Z,21.50
2023-03-02T09:19:15.699Z,23.48
2023-03-02T09:21:43.974Z,26.63
2023-03-02T09:24:12.257Z,17.85
2023-03-02T09:26:41.880Z,22.73
2023-03-02T09:29:10.124Z,22.23
2023-03-02T09:31:38.935Z,20.08
2023-03-02T09:34:07.365Z,24.13
2023-03-02T09:36:35.613Z,25.83
2023-03-02T09:39:08.535Z,22.35
2023-03-02T09:42:03.160Z,28.20
2023-03-02T09:44:49.344Z,23.33
2023-03-02T09:47:34.629Z,22.42
2023-03-02T09:50:11.783Z,27.13
2023-03-02T09:52:42.357Z,23.33
2023-03-02T09:55:16.236Z,20.48
2023-03-02T09:57:46.863Z,24.73
2023-03-02T10:02:50.693Z,23.05
2023-03-02T10:05:22.210Z,21.58
2023-03-02T10:07:50.622Z,23.50
2023-03-02T10:10:28.080Z,23.83
2023-03-02T10:13:10.362Z,21.08
2023-03-02T10:15:41.907Z,26.00
2023-03-02T10:18:19.627Z,23.95
2023-03-02T10:20:52.116Z,18.50
2023-03-02T10:23:32.429Z,25.33
2023-03-02T10:26:05.520Z,22.58
2023-03-02T10:28:41.280Z,23.73
2023-03-02T10:31:11.532Z,22.25
2023-03-02T10:33:40.657Z,27.60
2023-03-02T10:36:20.670Z,24.67
2023-03-02T10:38:49.106Z,26.90
2023-03-02T10:41:22.850Z,27.20
2023-03-02T10:43:54.087Z,26.77
2023-03-02T10:46:22.505Z,28.45
2023-03-02T10:48:52.700Z,26.85
2023-03-02T10:51:26.537Z,24.85
2023-03-02T10:54:05.441Z,25.63
2023-03-02T10:56:34.681Z,22.08
2023-03-02T10:59:14.127Z,22.83
2023-03-02T11:01:42.460Z,23.48
2023-03-02T11:04:16.393Z,27.10
2023-03-02T11:06:44.704Z,21.13
2023-03-02T11:09:15.391Z,17.75
2023-03-02T11:14:19.074Z,25.00
2023-03-02T11:16:47.330Z,21.90
2023-03-02T11:19:17.676Z,18.77
2023-03-02T11:21:50.019Z,19.27
2023-03-02T11:24:21.913Z,20.90
2023-03-02T11:26:52.067Z,19.42
2023-03-02T11:29:28.729Z,19.45
2023-03-02T11:31:58.750Z,21.50
2023-03-02T11:34:33.925Z,17.15
2023-03-02T11:37:14.134Z,19.48
2023-03-02T11:39:56.126Z,18.40
2023-03-02T11:42:28.221Z,18.98
2023-03-02T11:45:01.065Z,16.55
2023-03-02T11:47:29.730Z,17.48
2023-03-02T11:50:03.751Z,19.75
2023-03-02T11:52:35.880Z,22.70
2023-03-02T11:55:06.875Z,21.92
2023-03-02T11:57:39.760Z,18.00
2023-03-02T12:00:16.183Z,19.00
2023-03-02T12:02:44.446Z,18.27
2023-03-02T12:05:28.887Z,18.35
2023-03-02T12:08:01.180Z,17.67
2023-03-02T12:10:34.977Z,19.70
2023-03-02T12:13:17.084Z,19.10
2023-03-02T12:15:47.621Z,18.95
2023-03-02T12:18:17.791Z,16.27
2023-03-02T12:20:46.059Z,16.40
2023-03-02T12:23:23.863Z,17.15
2023-03-02T12:26:03.777Z,15.10
2023-03-02T12:28:34.220Z,15.55
2023-03-02T12:31:10.526Z,15.77
2023-03-02T12:33:47.820Z,13.13
2023-03-02T12:36:20.158Z,17.70
2023-03-02T12:38:57.330Z,20.95
2023-03-02T12:41:43.814Z,17.27
2023-03-02T12:44:23.970Z,16.27
2023-03-02T12:46:56.362Z,16.58
2023-03-02T12:49:43.598Z,14.38
2023-03-02T12:52:23.780Z,17.05
2023-03-02T12:55:01.518Z,14.23
2023-03-02T12:57:29.819Z,16.15
2023-03-02T13:00:00.738Z,16.73
2023-03-02T13:02:31.950Z,16.73
2023-03-02T13:05:02.136Z,15.05
2023-03-02T13:07:36.420Z,17.00
2023-03-02T13:10:09.968Z,14.20
2023-03-02T13:12:38.879Z,18.42
2023-03-02T13:15:15.652Z,14.13
2023-03-02T13:17:46.008Z,15.10
2023-03-02T13:20:15.466Z,17.15
2023-03-02T13:22:43.871Z,18.67
2023-03-02T13:25:24.422Z,16.42
2023-03-02T13:27:53.720Z,15.82
2023-03-02T13:30:27.401Z,16.52
2023-03-02T13:33:02.787Z,15.07
2023-03-02T13:35:32.481Z,17.15
2023-03-02T13:38:05.616Z,14.57
2023-03-02T13:40:42.426Z,17.02
2023-03-02T13:43:28.414Z,16.85
2023-03-02T13:45:58.127Z,16.75
2023-03-02T13:48:28.789Z,13.40
2023-03-02T13:53:26.601Z,15.40
2023-03-02T13:55:55.268Z,18.50
2023-03-02T13:58:24.591Z,16.05
2023-03-02T14:00:53.395Z,12.38
2023-03-02T14:03:25.242Z,16.17
2023-03-02T14:05:55.937Z,16.55
2023-03-02T14:08:24.497Z,13.88
2023-03-02T14:10:54.517Z,16.00
2023-03-02T14:13:25.267Z,13.88
2023-03-02T14:15:54.490Z,19.13
2023-03-02T14:18:32.598Z,14.73
2023-03-02T14:21:02.541Z,14.45
2023-03-02T14:23:30.987Z,13.07
2023-03-02T14:26:04.773Z,15.07
2023-03-02T14:28:35.609Z,14.65
2023-03-02T14:31:03.956Z,13.40
2023-03-02T14:33:32.256Z,12.77
2023-03-02T14:36:02.125Z,12.23
2023-03-02T14:38:30.943Z,20.60
2023-03-02T14:40:59.470Z,12.15
2023-03-02T14:43:27.755Z,12.77
2023-03-02T14:45:56.056Z,12.70
2023-03-02T14:48:24.390Z,16.75
2023-03-02T14:50:52.877Z,12.90
2023-03-02T14:53:27.427Z,11.88
2023-03-02T14:55:55.778Z,11.80
2023-03-02T14:58:30.825Z,18.20
2023-03-02T15:00:59.110Z,12.32
2023-03-02T15:03:28.044Z,15.80
2023-03-02T15:06:01.646Z,12.27
2023-03-02T15:08:31.768Z,13.07
2023-03-02T15:11:00.087Z,16.43
2023-03-02T15:13:28.377Z,14.80
2023-03-02T15:15:56.893Z,12.52
2023-03-02T15:18:25.312Z,14.43
2023-03-02T15:20:53.546Z,13.13
2023-03-02T15:23:21.869Z,14.23
2023-03-02T15:25:51.523Z,17.13
2023-03-02T15:28:19.828Z,10.83
2023-03-02T15:30:48.100Z,13.65
2023-03-02T15:33:16.377Z,11.80
2023-03-02T15:35:45.151Z,11.70
2023-03-02T15:38:13.489Z,12.30
2023-03-02T15:40:41.751Z,13.80
2023-03-02T15:43:11.598Z,10.18
2023-03-02T15:45:45.587Z,10.43
2023-03-02T15:48:13.915Z,10.73
2023-03-02T15:50:42.206Z,11.57
2023-03-02T15:53:10.524Z,9.98
2023-03-02T15:55:41.534Z,13.65
2023-03-02T15:58:11.624Z,13.20
2023-03-02T16:00:39.987Z,12.70
2023-03-02T16:03:08.317Z,16.40
2023-03-02T16:05:36.705Z,10.20
2023-03-02T16:08:05.250Z,9.63
2023-03-02T16:10:35.969Z,9.38
2023-03-02T16:13:05.573Z,10.65
2023-03-02T16:15:41.129Z,15.88
2023-03-02T16:18:09.469Z,13.20
2023-03-02T16:20:38.519Z,11.43
2023-03-02T16:23:08.200Z,11.48
2023-03-02T16:25:39.714Z,11.53
2023-03-02T16:28:08.285Z,11.07
2023-03-02T16:30:36.855Z,14.90
2023-03-02T16:33:08.511Z,12.23
2023-03-02T16:35:38.502Z,11.30
2023-03-02T16:38:09.297Z,14.35
2023-03-02T16:43:06.156Z,14.93
2023-03-02T16:45:34.448Z,12.25
2023-03-02T16:48:02.905Z,12.75
2023-03-02T16:50:32.574Z,13.05
2023-03-02T16:53:00.985Z,11.33
2023-03-02T16:55:29.533Z,9.63
2023-03-02T16:57:57.806Z,11.07
2023-03-02T17:00:27.075Z,17.50
2023-03-02T17:02:55.504Z,32.38
2023-03-02T17:05:24.480Z,32.05
2023-03-02T17:07:54.887Z,33.85
2023-03-02T17:10:23.402Z,38.30
2023-03-02T17:12:51.670Z,40.28
2023-03-02T17:15:20.112Z,38.65
2023-03-02T17:17:48.431Z,41.97
2023-03-02T17:20:16.835Z,42.42
2023-03-02T17:22:45.092Z,32.58
2023-03-02T17:25:16.678Z,42.03
2023-03-02T17:27:45.195Z,36.88
2023-03-02T17:30:14.665Z,42.58
2023-03-02T17:32:43.116Z,37.65
2023-03-02T17:35:13.116Z,36.38
2023-03-02T17:37:41.458Z,44.22
2023-03-02T17:40:15.976Z,51.15
2023-03-02T17:42:44.320Z,45.63
2023-03-02T17:45:18.410Z,42.45
2023-03-02T17:47:46.683Z,43.45
2023-03-02T17:50:15.061Z,48.80
2023-03-02T17:52:43.340Z,39.25
2023-03-02T17:55:14.532Z,42.10
2023-03-02T17:57:42.935Z,48.58
2023-03-02T18:00:16.506Z,50.15
2023-03-02T18:02:44.753Z,50.10
2023-03-02T18:05:13.448Z,48.15
2023-03-02T18:07:41.943Z,49.28
2023-03-02T18:10:11.326Z,48.78
2023-03-02T18:12:41.147Z,55.10
2023-03-02T18:15:12.231Z,50.60
2023-03-02T18:17:40.578Z,55.25
2023-03-02T18:20:09.986Z,51.30
2023-03-02T18:25:08.021Z,54.28
2023-03-02T18:27:36.348Z,54.72
2023-03-02T18:30:06.919Z,55.08
2023-03-02T18:32:35.320Z,54.65
2023-03-02T18:35:03.717Z,55.38
2023-03-02T18:37:33.929Z,48.65
2023-03-02T18:40:02.594Z,53.00
2023-03-02T18:42:31.261Z,49.67
2023-03-02T18:44:59.773Z,50.65
2023-03-02T18:47:29.427Z,52.65
2023-03-02T18:49:58.515Z,57.67
2023-03-02T18:52:26.867Z,46.20
2023-03-02T18:54:57.764Z,48.65
2023-03-02T18:57:26.604Z,48.17
2023-03-02T18:59:54.928Z,47.90
2023-03-02T19:02:23.236Z,55.58
2023-03-02T19:04:53.433Z,59.00
2023-03-02T19:07:21.717Z,51.60
2023-03-02T19:09:50.042Z,45.70
2023-03-02T19:12:18.553Z,52.83
2023-03-02T19:14:46.927Z,52.67
2023-03-02T19:17:15.235Z,55.45
2023-03-02T19:19:43.919Z,51.50
2023-03-02T19:22:16.518Z,53.03
2023-03-02T19:24:45.746Z,53.45
2023-03-02T19:27:14.182Z,53.78
2023-03-02T19:29:42.900Z,58.05
2023-03-02T19:32:14.709Z,51.28
2023-03-02T19:34:44.295Z,48.05
2023-03-02T19:37:14.567Z,52.05
2023-03-02T19:39:43.052Z,58.47
2023-03-02T19:42:11.697Z,57.65
2023-03-02T19:44:39.944Z,53.17
2023-03-02T19:47:08.307Z,50.47
2023-03-02T19:49:37.702Z,57.78
2023-03-02T19:52:06.237Z,50.53
2023-03-02T19:54:35.887Z,54.50
2023-03-02T19:57:04.320Z,54.17
2023-03-02T19:59:33.564Z,51.35
2023-03-02T20:02:01.926Z,52.63
2023-03-02T20:04:30.216Z,60.20
2023-03-02T20:06:58.602Z,56.85
2023-03-02T20:09:27.819Z,52.65
2023-03-02T20:11:58.617Z,52.30
2023-03-02T20:14:33.792Z,61.33
2023-03-02T20:17:02.630Z,36.20
2023-03-02T20:19:30.867Z,57.20
2023-03-02T20:21:59.203Z,53.08
2023-03-02T20:24:27.530Z,52.33
2023-03-02T20:26:57.156Z,61.53
2023-03-02T20:29:25.526Z,58.03
2023-03-02T20:31:53.906Z,47.80
2023-03-02T20:34:22.290Z,66.50
2023-03-02T20:36:50.991Z,63.65
2023-03-02T20:39:21.052Z,55.95
2023-03-02T20:41:49.425Z,50.50
2023-03-02T20:44:19.391Z,55.78
2023-03-02T20:46:51.400Z,56.67
2023-03-02T20:49:20.586Z,57.67
2023-03-02T20:51:54.506Z,52.20
2023-03-02T20:54:25.496Z,61.58
2023-03-02T20:56:54.253Z,58.30
2023-03-02T20:59:24.461Z,59.38
2023-03-02T21:01:53.340Z,48.90
2023-03-02T21:04:22.876Z,58.88
2023-03-02T21:06:52.063Z,55.00
2023-03-02T21:09:20.773Z,59.55
2023-03-02T21:11:49.067Z,55.28
2023-03-02T21:14:17.447Z,54.97
2023-03-02T21:16:47.117Z,60.00
2023-03-02T21:19:18.021Z,56.73
2023-03-02T21:21:46.703Z,59.65
2023-03-02T21:24:17.616Z,57.33
2023-03-02T21:26:46.942Z,58.67
2023-03-02T21:29:15.527Z,63.20
2023-03-02T21:31:44.612Z,61.65
2023-03-02T21:34:15.167Z,63.28
2023-03-02T21:39:11.832Z,59.47
2023-03-02T21:41:40.731Z,60.20
2023-03-02T21:44:09.128Z,64.20
2023-03-02T21:46:38.455Z,66.40
2023-03-02T21:49:06.828Z,62.22
2023-03-02T21:51:37.028Z,61.58
2023-03-02T21:54:05.502Z,58.25
2023-03-02T21:56:33.795Z,64.38
2023-03-02T21:59:02.547Z,66.18
2023-03-02T22:01:32.861Z,64.97
2023-03-02T22:04:01.671Z,63.20
2023-03-02T22:06:31.721Z,64.15
2023-03-02T22:09:02.453Z,70.50
2023-03-02T22:11:32.190Z,65.93
2023-03-02T22:14:02.807Z,65.15
2023-03-02T22:19:03.054Z,69.00
2023-03-02T22:21:34.210Z,67.07
2023-03-02T22:24:19.779Z,63.10
2023-03-02T22:26:49.679Z,67.43
2023-03-02T22:29:19.525Z,69.97
2023-03-02T22:31:48.974Z,66.82
2023-03-02T22:34:20.619Z,63.22
2023-03-02T22:36:49.299Z,68.68
2023-03-02T22:39:22.754Z,70.13
2023-03-02T22:41:51.371Z,64.25
2023-03-02T22:44:19.616Z,69.20
2023-03-02T22:46:47.912Z,58.10
2023-03-02T22:49:18.456Z,64.03
2023-03-02T22:51:46.763Z,65.70
2023-03-02T22:54:22.993Z,64.03
2023-03-02T22:56:52.971Z,63.80
2023-03-02T22:59:24.396Z,71.85
2023-03-02T23:01:53.125Z,68.57
2023-03-02T23:04:23.391Z,71.40
2023-03-02T23:06:52.875Z,64.43
2023-03-02T23:09:24.739Z,57.58
2023-03-02T23:11:54.568Z,64.88
2023-03-02T23:14:25.964Z,66.22
2023-03-02T23:16:59.238Z,69.57
2023-03-02T23:19:28.390Z,72.65
2023-03-02T23:21:57.072Z,67.95
2023-03-02T23:24:27.543Z,73.97
2023-03-02T23:26:55.757Z,67.55
2023-03-02T23:29:24.029Z,71.28
2023-03-02T23:31:52.433Z,72.30
2023-03-02T23:34:20.783Z,72.45
2023-03-02T23:36:49.002Z,69.47
2023-03-02T23:39:17.623Z,72.63
2023-03-02T23:41:47.704Z,73.80
2023-03-02T23:44:15.945Z,74.63
2023-03-02T23:46:44.718Z,68.72
2023-03-02T23:49:13.029Z,68.22
2023-03-02T23:51:41.301Z,69.03
2023-03-02T23:54:09.543Z,74.35
2023-03-02T23:56:37.908Z,70.18
2023-03-02T23:59:07.537Z,69.13
